Time;durP1;ratioP1;P1;durP2;ratioP2;P2;SDS_P1;SDS_P2;PMS_P1;PMS_P2;Temp;Humidity;BMP_temperature;BMP_pressure;BME280_temperature;BME280_humidity;BME280_pressure;Samples;Min_cycle;Max_cycle;Signal;HPM_P1;HPM_P2
2021/04/19 00:00:16;;;;;;;3.78;3.30;;;7.40;99.90;;;;;;5049685;28;20177;-67
2021/04/19 00:02:42;;;;;;;3.30;1.90;;;7.40;99.90;;;;;;5043738;28;20193;-66
2021/04/19 00:05:14;;;;;;;20.05;2.90;;;7.30;99.90;;;;;;5033618;28;20178;-67
2021/04/19 00:07:39;;;;;;;4.10;3.40;;;7.30;99.90;;;;;;5040992;28;20641;-67
2021/04/19 00:10:07;;;;;;;5.33;3.13;;;7.30;99.90;;;;;;5054002;28;20173;-66
2021/04/19 00:12:33;;;;;;;4.55;2.97;;;7.20;99.90;;;;;;5048190;28;20181;-67
2021/04/19 00:14:59;;;;;;;2.85;2.65;;;7.20;99.90;;;;;;5033683;28;20586;-67
2021/04/19 00:17:24;;;;;;;3.23;2.30;;;7.30;99.90;;;;;;5037265;28;20249;-67
2021/04/19 00:19:50;;;;;;;2.50;2.30;;;7.20;99.90;;;;;;5053735;28;20175;-69
2021/04/19 00:22:16;;;;;;;4.40;2.60;;;7.20;99.90;;;;;;5051475;28;20560;-69
2021/04/19 00:24:41;;;;;;;2.50;2.30;;;7.20;99.90;;;;;;5050596;28;20181;-68
2021/04/19 00:27:07;;;;;;;4.23;2.83;;;7.20;99.90;;;;;;5036664;28;20213;-69
2021/04/19 00:29:33;;;;;;;2.60;2.00;;;7.20;99.90;;;;;;5053408;28;20195;-68
2021/04/19 00:32:01;;;;;;;1.90;1.87;;;7.10;99.90;;;;;;5053003;28;20408;-69
2021/04/19 00:34:27;;;;;;;2.60;2.00;;;7.10;99.90;;;;;;5034292;28;20214;-69
2021/04/19 00:36:53;;;;;;;4.23;2.07;;;7.00;99.90;;;;;;5033351;28;20656;-68
2021/04/19 00:39:18;;;;;;;9.27;3.60;;;6.90;99.90;;;;;;5049267;28;20223;-68
2021/04/19 00:41:45;;;;;;;2.70;2.50;;;6.90;99.90;;;;;;5052104;28;20180;-69
2021/04/19 00:44:11;;;;;;;3.00;1.90;;;6.90;99.90;;;;;;5036302;28;20621;-68
2021/04/19 00:46:37;;;;;;;2.28;2.17;;;6.80;99.90;;;;;;5034401;28;20194;-67
2021/04/19 00:49:03;;;;;;;1.88;1.40;;;6.80;99.90;;;;;;5046486;28;20698;-69
2021/04/19 00:51:29;;;;;;;2.40;2.30;;;6.80;99.90;;;;;;5053321;28;20165;-68
2021/04/19 00:53:55;;;;;;;4.73;2.33;;;6.70;99.90;;;;;;5039824;28;20702;-68
2021/04/19 00:56:21;;;;;;;2.80;2.67;;;6.70;99.90;;;;;;5033221;28;20212;-68
2021/04/19 00:58:47;;;;;;;2.10;1.52;;;6.70;99.90;;;;;;5042699;28;20190;-68
2021/04/19 01:01:14;;;;;;;2.83;2.50;;;6.70;99.90;;;;;;5051851;28;20175;-68
2021/04/19 01:03:42;;;;;;;5.07;2.72;;;6.70;99.90;;;;;;5044770;28;20261;-68
2021/04/19 01:06:08;;;;;;;5.55;2.78;;;6.70;99.90;;;;;;5032959;28;20206;-68
2021/04/19 01:08:34;;;;;;;2.50;2.30;;;6.70;99.90;;;;;;5038631;28;20189;-68
2021/04/19 01:11:00;;;;;;;3.80;2.50;;;6.70;99.90;;;;;;5052756;28;20520;-68
2021/04/19 01:13:25;;;;;;;5.40;2.50;;;6.70;99.90;;;;;;5035783;28;20170;-67
2021/04/19 01:15:51;;;;;;;2.77;2.60;;;6.70;99.90;;;;;;5032715;28;20209;-68
2021/04/19 01:18:17;;;;;;;12.97;2.83;;;6.70;99.90;;;;;;5046570;28;20575;-68
2021/04/19 01:20:46;;;;;;;1.37;1.37;;;6.70;99.90;;;;;;5052962;28;20178;-68
2021/04/19 01:23:14;;;;;;;1.80;1.70;;;6.70;99.90;;;;;;5038956;28;20178;-68
2021/04/19 01:25:40;;;;;;;2.97;2.65;;;6.70;99.90;;;;;;5032558;28;20257;-68
2021/04/19 01:28:06;;;;;;;2.73;2.63;;;6.70;99.90;;;;;;5044535;28;20209;-68
2021/04/19 01:30:40;;;;;;;2.65;2.55;;;6.70;99.90;;;;;;5052957;28;20733;-68
2021/04/19 01:33:07;;;;;;;5.70;2.17;;;6.80;99.90;;;;;;5041311;28;20261;-68
2021/04/19 01:35:33;;;;;;;6.53;2.45;;;6.80;99.90;;;;;;5031081;28;20236;-68
2021/04/19 01:37:59;;;;;;;3.28;2.17;;;6.70;99.90;;;;;;5041576;28;20189;-68
2021/04/19 01:40:27;;;;;;;9.27;3.40;;;6.80;99.90;;;;;;5032950;28;20182;-68
2021/04/19 01:42:53;;;;;;;6.72;2.88;;;6.70;99.90;;;;;;5041486;28;20567;-67
2021/04/19 01:45:19;;;;;;;2.63;2.53;;;6.70;99.90;;;;;;5056201;28;20700;-67
2021/04/19 01:47:45;;;;;;;3.83;3.10;;;6.70;99.90;;;;;;5051266;28;20268;-68
2021/04/19 01:50:19;;;;;;;3.20;3.08;;;6.80;99.90;;;;;;5054804;28;20216;-67
2021/04/19 01:52:45;;;;;;;5.07;3.70;;;6.80;99.90;;;;;;5039676;28;20677;-67
2021/04/19 01:55:15;;;;;;;2.78;2.67;;;6.90;99.90;;;;;;5036041;28;20189;-67
2021/04/19 01:57:43;;;;;;;4.60;2.83;;;6.80;99.90;;;;;;5048822;28;20691;-67
2021/04/19 02:00:11;;;;;;;2.78;2.58;;;6.80;99.90;;;;;;5053476;28;20222;-67
2021/04/19 02:03:03;;;;;;;6.75;2.50;;;6.80;99.90;;;;;;5042540;28;20224;-68
2021/04/19 02:05:53;;;;;;;2.35;2.25;;;6.80;99.90;;;;;;5035861;28;20644;-67
2021/04/19 02:08:41;;;;;;;4.53;2.70;;;6.80;99.90;;;;;;5039626;28;20200;-67
2021/04/19 02:11:12;;;;;;;2.20;1.83;;;6.90;99.90;;;;;;5056163;28;20180;-67
2021/04/19 02:13:52;;;;;;;4.70;3.47;;;6.90;99.90;;;;;;5050389;28;20170;-67
2021/04/19 02:16:44;;;;;;;1.92;1.75;;;6.90;99.90;;;;;;5037818;28;20212;-67
2021/04/19 02:19:28;;;;;;;3.40;2.95;;;7.00;99.90;;;;;;5046051;28;20182;-67
2021/04/19 02:22:06;;;;;;;6.05;3.35;;;6.90;99.90;;;;;;5036237;28;20169;-67
2021/04/19 02:24:37;;;;;;;2.97;2.67;;;6.90;99.90;;;;;;5036782;28;20182;-67
2021/04/19 02:27:09;;;;;;;2.45;2.25;;;6.90;99.90;;;;;;5035999;28;20526;-68
2021/04/19 02:29:40;;;;;;;1.63;1.50;;;7.00;99.90;;;;;;5046960;28;20205;-67
2021/04/19 02:32:26;;;;;;;5.40;4.60;;;6.90;99.90;;;;;;5043599;28;20194;-67
2021/04/19 02:34:56;;;;;;;2.50;2.10;;;6.90;99.90;;;;;;5048223;28;20170;-67
2021/04/19 02:37:24;;;;;;;2.28;2.17;;;6.90;99.90;;;;;;5055655;28;20186;-68
2021/04/19 02:39:51;;;;;;;2.58;2.35;;;6.90;99.90;;;;;;5043338;28;20190;-67
2021/04/19 02:42:17;;;;;;;3.17;2.88;;;6.80;99.90;;;;;;5038838;28;20165;-67
2021/04/19 02:44:51;;;;;;;5.70;2.60;;;6.80;99.90;;;;;;5044574;28;20174;-67
2021/04/19 02:47:21;;;;;;;4.10;3.15;;;6.80;99.90;;;;;;5035651;28;20185;-67
2021/04/19 02:49:48;;;;;;;2.72;2.53;;;6.70;99.90;;;;;;5045326;28;20197;-67
2021/04/19 02:52:15;;;;;;;2.28;2.17;;;6.70;99.90;;;;;;5039238;28;20177;-67
2021/04/19 02:54:42;;;;;;;2.40;2.20;;;6.70;99.90;;;;;;5043076;28;20172;-67
2021/04/19 02:57:28;;;;;;;4.80;2.72;;;6.70;99.90;;;;;;5055162;28;20545;-68
2021/04/19 02:59:55;;;;;;;2.70;2.17;;;6.70;99.90;;;;;;5053529;28;20186;-67
2021/04/19 03:02:27;;;;;;;5.05;3.35;;;6.70;99.90;;;;;;5053907;28;20173;-68
2021/04/19 03:04:53;;;;;;;3.88;2.90;;;6.70;99.90;;;;;;5045451;28;20181;-67
2021/04/19 03:07:37;;;;;;;2.35;2.22;;;6.70;99.90;;;;;;5036249;28;20607;-67
2021/04/19 03:10:09;;;;;;;7.32;3.20;;;6.80;99.90;;;;;;5044539;28;20256;-67
2021/04/19 03:12:37;;;;;;;3.92;3.47;;;6.80;99.90;;;;;;5055208;28;20171;-67
2021/04/19 03:15:10;;;;;;;8.38;3.92;;;6.80;99.90;;;;;;5045199;28;20168;-68
2021/04/19 03:17:37;;;;;;;3.30;2.70;;;6.80;99.90;;;;;;5034962;28;20190;-68
2021/04/19 03:20:11;;;;;;;3.67;2.58;;;6.80;99.90;;;;;;5042488;28;20529;-68
2021/04/19 03:22:44;;;;;;;2.95;2.67;;;6.80;99.90;;;;;;5053587;28;20315;-68
2021/04/19 03:25:11;;;;;;;3.15;2.85;;;6.80;99.90;;;;;;5045627;28;20253;-68
2021/04/19 03:27:40;;;;;;;2.58;2.35;;;6.80;99.90;;;;;;5034655;28;20577;-68
2021/04/19 03:30:08;;;;;;;2.72;2.53;;;6.80;99.90;;;;;;5041884;28;20240;-68
2021/04/19 03:32:39;;;;;;;6.38;2.88;;;6.80;99.90;;;;;;5054585;28;20162;-68
2021/04/19 03:35:13;;;;;;;3.22;1.90;;;6.80;99.90;;;;;;5051777;28;20165;-68
2021/04/19 03:37:41;;;;;;;4.57;2.75;;;6.80;99.90;;;;;;5044630;28;20201;-68
2021/04/19 03:40:14;;;;;;;2.55;1.67;;;6.80;99.90;;;;;;5040491;28;20165;-68
2021/04/19 03:42:42;;;;;;;2.17;2.08;;;6.80;99.90;;;;;;5054481;28;20169;-68
2021/04/19 03:45:11;;;;;;;2.15;2.05;;;6.90;99.90;;;;;;5040974;28;20224;-68
2021/04/19 03:47:38;;;;;;;4.40;3.38;;;6.80;99.90;;;;;;5032941;28;20252;-68
2021/04/19 03:50:04;;;;;;;3.72;3.53;;;6.80;99.90;;;;;;5043942;28;20260;-68
2021/04/19 03:52:35;;;;;;;1.90;1.75;;;6.80;99.90;;;;;;5054302;28;20165;-69
2021/04/19 03:55:02;;;;;;;2.95;2.75;;;6.80;99.90;;;;;;5043029;28;20223;-68
2021/04/19 03:57:30;;;;;;;2.00;1.83;;;6.80;99.90;;;;;;5033838;28;20190;-68
2021/04/19 03:59:59;;;;;;;2.20;1.95;;;6.90;99.90;;;;;;5041916;28;20174;-68
2021/04/19 04:02:28;;;;;;;2.35;1.85;;;6.90;99.90;;;;;;5050818;28;20232;-68
2021/04/19 04:04:56;;;;;;;2.53;2.33;;;6.90;99.90;;;;;;5033586;28;20197;-68
2021/04/19 04:07:22;;;;;;;2.63;2.42;;;7.00;99.90;;;;;;5049959;28;20227;-68
2021/04/19 04:09:49;;;;;;;2.30;2.00;;;6.90;99.90;;;;;;5053939;28;20292;-68
2021/04/19 04:12:15;;;;;;;2.72;2.42;;;6.90;99.90;;;;;;5052134;28;20173;-68
2021/04/19 04:14:55;;;;;;;3.35;1.67;;;6.90;99.90;;;;;;5032145;28;20181;-68
2021/04/19 04:17:21;;;;;;;7.55;2.40;;;7.00;99.90;;;;;;5033783;28;20191;-68
2021/04/19 04:19:46;;;;;;;6.07;3.80;;;6.90;99.90;;;;;;5053869;28;20170;-67
2021/04/19 04:22:13;;;;;;;1.40;1.30;;;6.80;99.90;;;;;;5053455;28;20521;-68
2021/04/19 04:24:39;;;;;;;2.25;1.70;;;6.70;99.90;;;;;;5034456;28;20444;-68
2021/04/19 04:27:06;;;;;;;3.33;2.85;;;6.70;99.90;;;;;;5033707;28;20202;-68
2021/04/19 04:29:32;;;;;;;3.05;2.70;;;6.70;99.90;;;;;;5048881;28;20205;-68
2021/04/19 04:31:57;;;;;;;3.03;2.40;;;6.80;99.90;;;;;;5053705;28;20169;-68
2021/04/19 04:34:23;;;;;;;1.60;1.50;;;6.80;99.90;;;;;;5038022;28;20478;-68
2021/04/19 04:36:49;;;;;;;1.97;1.80;;;6.80;99.90;;;;;;5049651;28;20198;-68
2021/04/19 04:39:14;;;;;;;3.70;3.10;;;6.70;99.90;;;;;;5052630;28;20170;-67
2021/04/19 04:41:40;;;;;;;2.80;2.60;;;6.70;99.90;;;;;;5053396;28;20512;-67
2021/04/19 04:44:09;;;;;;;2.90;2.70;;;6.70;99.90;;;;;;5041372;28;20251;-68
2021/04/19 04:46:50;;;;;;;2.88;2.55;;;6.70;99.90;;;;;;5044868;28;20221;-68
2021/04/19 04:49:25;;;;;;;3.17;2.97;;;6.70;99.90;;;;;;5040818;28;20201;-68
2021/04/19 04:51:55;;;;;;;4.32;2.70;;;6.70;99.90;;;;;;5033805;28;20193;-67
2021/04/19 04:54:22;;;;;;;3.50;2.72;;;6.70;99.90;;;;;;5044121;28;20173;-67
2021/04/19 04:56:55;;;;;;;2.53;2.33;;;6.70;99.90;;;;;;5053199;28;20219;-67
2021/04/19 04:59:22;;;;;;;3.95;3.65;;;6.70;99.90;;;;;;5041143;28;20190;-69
2021/04/19 05:01:49;;;;;;;4.07;3.20;;;6.70;99.90;;;;;;5048482;28;20184;-69
2021/04/19 05:04:15;;;;;;;2.70;2.50;;;6.70;99.90;;;;;;5041786;28;20251;-68
2021/04/19 05:06:45;;;;;;;4.40;3.65;;;6.70;99.90;;;;;;5033141;28;20306;-68
2021/04/19 05:09:11;;;;;;;2.60;2.45;;;6.70;99.90;;;;;;5033351;28;20201;-65
2021/04/19 05:11:41;;;;;;;6.65;3.55;;;6.70;99.90;;;;;;5032953;28;20647;-67
2021/04/19 05:14:06;;;;;;;4.57;2.55;;;6.70;99.90;;;;;;5039624;28;20572;-66
2021/04/19 05:16:33;;;;;;;2.13;1.97;;;6.70;99.90;;;;;;5051958;28;20268;-66
2021/04/19 05:19:00;;;;;;;3.50;2.80;;;6.70;99.90;;;;;;5050206;28;20273;-68
2021/04/19 05:21:26;;;;;;;6.28;4.35;;;6.80;99.90;;;;;;5037054;28;20170;-67
2021/04/19 05:23:52;;;;;;;3.60;3.00;;;6.80;99.90;;;;;;5037665;28;20186;-68
2021/04/19 05:26:20;;;;;;;1.83;1.73;;;6.80;99.90;;;;;;5036911;28;20203;-68
2021/04/19 05:28:46;;;;;;;3.00;2.72;;;6.70;99.90;;;;;;5040432;28;20192;-68
2021/04/19 05:31:12;;;;;;;3.47;3.17;;;6.70;99.90;;;;;;5056525;28;20173;-67
2021/04/19 05:33:38;;;;;;;2.50;2.03;;;6.80;99.90;;;;;;5039249;28;20180;-68
2021/04/19 05:36:12;;;;;;;4.43;3.22;;;6.70;99.90;;;;;;5055927;28;20197;-68
2021/04/19 05:38:41;;;;;;;3.30;2.03;;;6.70;99.90;;;;;;5054977;28;20169;-68
2021/04/19 05:41:09;;;;;;;2.97;2.67;;;6.70;99.90;;;;;;5035299;28;20170;-69
2021/04/19 05:43:35;;;;;;;3.83;2.38;;;6.60;99.90;;;;;;5036966;28;20506;-68
2021/04/19 05:46:01;;;;;;;4.88;3.22;;;6.50;99.90;;;;;;5051709;28;20723;-71
2021/04/19 05:48:27;;;;;;;2.00;1.90;;;6.50;99.90;;;;;;5038012;28;20209;-69
2021/04/19 05:50:57;;;;;;;3.83;2.63;;;6.50;99.90;;;;;;5054759;28;20570;-68
2021/04/19 05:53:24;;;;;;;3.50;2.70;;;6.40;99.90;;;;;;5056431;28;20161;-67
2021/04/19 05:55:54;;;;;;;2.88;2.63;;;6.40;99.90;;;;;;5037827;28;20228;-68
2021/04/19 05:58:25;;;;;;;3.38;2.60;;;6.30;99.90;;;;;;5036141;28;20182;-66
2021/04/19 06:00:58;;;;;;;5.68;2.92;;;6.40;99.90;;;;;;5053585;28;20536;-66
2021/04/19 06:03:34;;;;;;;2.08;1.98;;;6.40;99.90;;;;;;5049051;28;20173;-65
2021/04/19 06:06:21;;;;;;;2.53;2.33;;;6.40;99.90;;;;;;5055804;28;20196;-65
2021/04/19 06:09:05;;;;;;;4.88;3.35;;;6.30;99.90;;;;;;5040169;28;20205;-65
2021/04/19 06:12:06;;;;;;;2.65;2.25;;;6.30;99.90;;;;;;5047235;28;20172;-65
2021/04/19 06:14:35;;;;;;;2.58;1.77;;;6.20;99.90;;;;;;5055118;28;20169;-64
2021/04/19 06:17:03;;;;;;;3.78;2.30;;;6.20;99.90;;;;;;5054639;28;20243;-64
2021/04/19 06:19:30;;;;;;;2.80;2.53;;;6.10;99.90;;;;;;5035876;28;20205;-63
2021/04/19 06:21:56;;;;;;;3.70;3.42;;;6.10;99.90;;;;;;5033799;28;20514;-62
2021/04/19 06:24:22;;;;;;;2.53;2.33;;;6.10;99.90;;;;;;5053625;28;20185;-63
2021/04/19 06:26:49;;;;;;;3.57;3.27;;;6.20;99.90;;;;;;5054685;28;20476;-62
2021/04/19 06:29:16;;;;;;;4.45;3.17;;;6.20;99.90;;;;;;5037518;28;20210;-63
2021/04/19 06:31:48;;;;;;;11.35;4.05;;;6.30;99.90;;;;;;5035772;28;20170;-63
2021/04/19 06:34:15;;;;;;;2.55;2.35;;;6.20;99.90;;;;;;5042047;28;20198;-64
2021/04/19 06:36:43;;;;;;;4.10;3.47;;;6.20;99.90;;;;;;5035781;28;20277;-64
2021/04/19 06:39:11;;;;;;;6.22;5.20;;;6.20;99.90;;;;;;5050517;28;20239;-64
2021/04/19 06:41:37;;;;;;;2.13;1.98;;;6.20;99.90;;;;;;5050880;28;20192;-64
2021/04/19 06:44:03;;;;;;;5.43;2.90;;;6.20;99.90;;;;;;5066056;28;20169;-63
2021/04/19 06:46:37;;;;;;;6.85;4.35;;;6.20;99.90;;;;;;5068666;28;20185;-64
2021/04/19 06:49:05;;;;;;;2.80;2.60;;;6.20;99.90;;;;;;5065986;28;20363;-63
2021/04/19 06:51:32;;;;;;;3.88;3.05;;;6.20;99.90;;;;;;5051719;28;20178;-62
2021/04/19 06:53:59;;;;;;;3.22;3.03;;;6.20;99.90;;;;;;5041794;28;20181;-64
2021/04/19 06:56:37;;;;;;;7.22;2.65;;;6.20;99.90;;;;;;5054407;28;20189;-65
2021/04/19 06:59:04;;;;;;;5.75;3.00;;;6.20;99.90;;;;;;5047172;28;20192;-65
2021/04/19 07:01:31;;;;;;;2.80;2.60;;;6.20;99.90;;;;;;5044870;28;20176;-67
2021/04/19 07:04:05;;;;;;;2.97;2.35;;;6.20;99.90;;;;;;5047618;28;20182;-66
2021/04/19 07:06:35;;;;;;;3.88;2.80;;;6.20;99.90;;;;;;5035003;28;20193;-66
2021/04/19 07:09:16;;;;;;;3.83;2.55;;;6.20;99.90;;;;;;5041322;28;20224;-68
2021/04/19 07:11:44;;;;;;;8.00;3.33;;;6.20;99.90;;;;;;5051537;28;20248;-69
2021/04/19 07:14:12;;;;;;;4.10;3.03;;;6.30;99.90;;;;;;5054511;28;20170;-68
2021/04/19 07:16:38;;;;;;;4.30;4.00;;;6.30;99.90;;;;;;5041246;28;20248;-65
2021/04/19 07:19:05;;;;;;;4.27;3.53;;;6.30;99.90;;;;;;5052626;28;20185;-65
2021/04/19 07:21:33;;;;;;;3.55;3.17;;;6.30;99.90;;;;;;5052224;28;20261;-67
2021/04/19 07:24:01;;;;;;;3.70;3.10;;;6.30;99.90;;;;;;5054126;28;20169;-68
2021/04/19 07:26:27;;;;;;;1.67;1.58;;;6.40;99.90;;;;;;5036626;28;20668;-64
2021/04/19 07:28:53;;;;;;;3.73;2.90;;;6.40;99.90;;;;;;5034760;28;20198;-65
2021/04/19 07:31:19;;;;;;;4.45;3.35;;;6.40;99.90;;;;;;5036172;28;20994;-65
2021/04/19 07:33:45;;;;;;;3.50;2.23;;;6.40;99.90;;;;;;5032967;28;20266;-66
2021/04/19 07:36:28;;;;;;;3.53;3.20;;;6.50;99.90;;;;;;5044348;28;20197;-65
2021/04/19 07:38:59;;;;;;;5.20;2.90;;;6.60;99.90;;;;;;5034567;28;20170;-66
2021/04/19 07:41:44;;;;;;;5.47;3.53;;;6.60;99.90;;;;;;5040801;28;20256;-66
2021/04/19 07:44:10;;;;;;;3.00;2.70;;;6.70;99.90;;;;;;5033874;28;20596;-68
2021/04/19 07:46:36;;;;;;;9.13;3.60;;;6.70;99.90;;;;;;5035125;28;20234;-66
2021/04/19 07:49:08;;;;;;;5.40;2.90;;;6.80;99.90;;;;;;5032902;28;20205;-66
2021/04/19 07:51:38;;;;;;;4.65;2.80;;;6.80;99.90;;;;;;5051330;28;20185;-65
2021/04/19 07:54:17;;;;;;;3.90;3.55;;;6.80;99.90;;;;;;5053976;28;20578;-67
2021/04/19 07:56:45;;;;;;;3.92;3.72;;;6.90;99.90;;;;;;5034423;28;20202;-66
2021/04/19 07:59:29;;;;;;;3.45;3.17;;;7.00;99.90;;;;;;5033849;28;20220;-65
2021/04/19 08:02:03;;;;;;;4.10;3.55;;;7.00;99.90;;;;;;5038995;28;20187;-63
2021/04/19 08:04:29;;;;;;;4.45;4.07;;;7.00;99.90;;;;;;5033597;28;20180;-64
2021/04/19 08:06:56;;;;;;;5.05;3.80;;;7.10;99.90;;;;;;5032566;28;20198;-64
2021/04/19 08:09:28;;;;;;;5.47;4.75;;;7.20;99.90;;;;;;5039112;28;20210;-66
2021/04/19 08:11:57;;;;;;;8.88;3.38;;;7.20;99.90;;;;;;5048059;28;20171;-66
2021/04/19 08:14:26;;;;;;;2.63;2.25;;;7.30;99.90;;;;;;5033548;28;20169;-65
2021/04/19 08:17:11;;;;;;;3.38;3.08;;;7.30;99.90;;;;;;5045940;28;20234;-66
2021/04/19 08:19:39;;;;;;;11.35;3.80;;;7.40;99.90;;;;;;5073387;28;20175;-65
2021/04/19 08:22:17;;;;;;;7.72;4.93;;;7.60;99.90;;;;;;5073304;28;20180;-65
2021/04/19 08:24:43;;;;;;;12.25;3.80;;;7.70;99.90;;;;;;5073062;28;20164;-66
2021/04/19 08:27:22;;;;;;;5.30;3.25;;;7.80;99.90;;;;;;5050423;28;20567;-66
2021/04/19 08:29:49;;;;;;;6.50;4.32;;;7.80;99.90;;;;;;5050355;28;20251;-66
2021/04/19 08:32:20;;;;;;;5.28;3.30;;;7.80;99.90;;;;;;5049741;28;20175;-67
2021/04/19 08:34:49;;;;;;;4.57;2.63;;;7.80;99.90;;;;;;5033264;28;20169;-67
2021/04/19 08:37:20;;;;;;;5.95;4.65;;;7.90;99.90;;;;;;5034340;28;20190;-67
2021/04/19 08:39:46;;;;;;;11.05;4.00;;;8.00;99.90;;;;;;5037176;28;20181;-70
2021/04/19 08:42:13;;;;;;;5.97;4.25;;;8.00;99.90;;;;;;5049869;28;20671;-68
2021/04/19 08:44:40;;;;;;;5.78;3.60;;;8.10;99.90;;;;;;5052941;28;20583;-68
2021/04/19 08:47:07;;;;;;;5.53;3.08;;;8.20;99.90;;;;;;5049721;28;20195;-68
2021/04/19 08:49:33;;;;;;;4.65;2.53;;;8.20;99.90;;;;;;5053031;28;20193;-67
2021/04/19 08:52:00;;;;;;;7.60;4.38;;;8.30;99.90;;;;;;5051547;28;20171;-66
2021/04/19 08:54:27;;;;;;;8.02;4.80;;;8.30;99.90;;;;;;5032968;28;20183;-70
2021/04/19 08:56:54;;;;;;;4.97;3.42;;;8.30;99.90;;;;;;5037105;28;20272;-69
2021/04/19 08:59:21;;;;;;;6.78;3.90;;;8.30;99.90;;;;;;5033075;28;20186;-68
2021/04/19 09:01:48;;;;;;;4.25;3.85;;;8.30;99.90;;;;;;5035743;28;20188;-70
2021/04/19 09:04:20;;;;;;;4.13;3.72;;;8.20;99.90;;;;;;5051546;28;20173;-69
2021/04/19 09:06:47;;;;;;;4.30;3.58;;;8.30;99.90;;;;;;5050310;28;20196;-69
2021/04/19 09:09:14;;;;;;;5.40;3.60;;;8.30;99.90;;;;;;5033067;28;20196;-68
2021/04/19 09:11:41;;;;;;;3.33;2.85;;;8.40;99.90;;;;;;5033575;28;20636;-66
2021/04/19 09:14:11;;;;;;;4.22;3.85;;;8.50;99.90;;;;;;5050349;28;20244;-68
2021/04/19 09:16:38;;;;;;;4.93;3.95;;;8.50;99.90;;;;;;5038767;28;20208;-69
2021/04/19 09:19:06;;;;;;;7.65;5.25;;;8.40;99.90;;;;;;5052351;28;20180;-69
2021/04/19 09:21:35;;;;;;;7.78;4.20;;;8.50;99.90;;;;;;5043881;28;20176;-69
2021/04/19 09:24:01;;;;;;;5.18;3.42;;;8.50;99.90;;;;;;5032548;28;21013;-68
2021/04/19 09:26:54;;;;;;;4.80;4.20;;;8.50;99.90;;;;;;5038911;28;20193;-69
2021/04/19 09:29:26;;;;;;;5.70;4.80;;;8.60;99.90;;;;;;5049002;28;20459;-69
2021/04/19 09:32:18;;;;;;;11.63;4.63;;;8.80;99.90;;;;;;5041737;28;20674;-70
2021/04/19 09:34:49;;;;;;;5.47;4.05;;;8.80;99.90;;;;;;5052458;28;20165;-68
2021/04/19 09:37:17;;;;;;;5.55;5.15;;;8.80;99.90;;;;;;5040831;28;20551;-68
2021/04/19 09:39:44;;;;;;;5.72;5.15;;;8.90;99.90;;;;;;5033066;28;20560;-68
2021/04/19 09:42:10;;;;;;;8.85;4.35;;;9.00;99.90;;;;;;5043169;28;20188;-70
2021/04/19 09:44:50;;;;;;;6.60;4.57;;;9.10;99.90;;;;;;5044140;28;20229;-69
2021/04/19 09:47:47;;;;;;;5.55;4.82;;;9.10;99.90;;;;;;5037352;28;20241;-67
2021/04/19 09:50:15;;;;;;;4.72;4.28;;;9.20;99.90;;;;;;5041071;28;20223;-69
2021/04/19 09:52:42;;;;;;;8.43;4.60;;;9.30;99.90;;;;;;5040281;28;20182;-70
2021/04/19 09:55:08;;;;;;;5.22;4.72;;;9.40;99.90;;;;;;5041757;28;20165;-68
2021/04/19 09:57:37;;;;;;;4.13;3.83;;;9.50;99.90;;;;;;5040143;28;20194;-69
2021/04/19 10:00:06;;;;;;;10.77;5.75;;;9.50;99.90;;;;;;5036884;28;20256;-69
2021/04/19 10:02:34;;;;;;;9.57;5.57;;;9.50;99.90;;;;;;5032845;28;20236;-69
2021/04/19 10:05:00;;;;;;;7.80;4.95;;;9.40;99.90;;;;;;5041785;28;20188;-69
2021/04/19 10:07:26;;;;;;;5.63;3.50;;;9.50;99.90;;;;;;5055844;28;20249;-69
2021/04/19 10:09:54;;;;;;;8.10;5.93;;;9.60;99.90;;;;;;5048384;28;20202;-70
2021/04/19 10:12:21;;;;;;;7.45;5.50;;;9.70;99.90;;;;;;5049212;28;20539;-69
2021/04/19 10:14:47;;;;;;;5.78;4.40;;;9.80;99.90;;;;;;5050422;28;20247;-73
2021/04/19 10:17:18;;;;;;;6.68;5.90;;;9.80;99.90;;;;;;5036112;28;20190;-71
2021/04/19 10:19:44;;;;;;;8.65;4.50;;;9.80;99.90;;;;;;5036204;28;20613;-69
2021/04/19 10:22:11;;;;;;;6.25;4.70;;;9.80;99.90;;;;;;5036048;28;20174;-74
2021/04/19 10:24:50;;;;;;;8.15;6.15;;;9.90;99.90;;;;;;5037966;28;20186;-73
2021/04/19 10:27:27;;;;;;;14.75;6.55;;;9.80;99.90;;;;;;5040441;28;20206;-69
2021/04/19 10:30:10;;;;;;;11.30;6.07;;;9.70;99.90;;;;;;5039456;28;20254;-68
2021/04/19 10:32:36;;;;;;;7.07;5.28;;;9.60;99.90;;;;;;5052369;28;20672;-71
2021/04/19 10:35:02;;;;;;;7.37;5.57;;;9.60;99.90;;;;;;5054289;28;20295;-73
2021/04/19 10:37:27;;;;;;;3.67;3.00;;;9.50;99.90;;;;;;5055496;28;20432;-74
2021/04/19 10:39:53;;;;;;;5.80;4.20;;;9.60;99.90;;;;;;5051278;28;20423;-73
2021/04/19 10:42:23;;;;;;;2.70;2.50;;;9.50;99.90;;;;;;5044824;28;20227;-77
2021/04/19 10:44:50;;;;;;;5.93;4.85;;;9.50;99.90;;;;;;5044883;28;20248;-74
2021/04/19 10:47:28;;;;;;;6.63;3.75;;;9.50;99.90;;;;;;5036313;28;20201;-76
2021/04/19 10:49:54;;;;;;;8.15;4.25;;;9.50;99.90;;;;;;5047615;28;20712;-72
2021/04/19 10:52:19;;;;;;;4.43;4.03;;;9.50;99.90;;;;;;5055305;28;20200;-73
2021/04/19 10:54:45;;;;;;;7.60;3.60;;;9.60;99.90;;;;;;5036751;28;20186;-74
2021/04/19 10:57:25;;;;;;;7.30;4.90;;;9.70;99.90;;;;;;5045088;28;20197;-70
2021/04/19 10:59:56;;;;;;;4.57;4.05;;;9.70;99.90;;;;;;5044356;28;20420;-72
2021/04/19 11:02:24;;;;;;;6.50;5.43;;;9.70;99.90;;;;;;5049311;28;20177;-71
2021/04/19 11:04:50;;;;;;;9.15;5.57;;;9.70;99.90;;;;;;5054609;28;20639;-73
2021/04/19 11:07:27;;;;;;;10.70;5.70;;;9.70;99.90;;;;;;5043616;28;20198;-70
2021/04/19 11:10:16;;;;;;;7.57;4.63;;;9.80;99.90;;;;;;5035296;28;20452;-71
2021/04/19 11:12:57;;;;;;;8.48;6.93;;;9.80;99.90;;;;;;5034929;28;20239;-72
2021/04/19 11:15:45;;;;;;;9.40;6.93;;;9.80;99.90;;;;;;5036534;28;20170;-72
2021/04/19 11:18:18;;;;;;;10.75;5.57;;;9.80;99.90;;;;;;5035234;28;20212;-72
2021/04/19 11:20:44;;;;;;;6.43;5.43;;;9.80;99.90;;;;;;5034798;28;20215;-72
2021/04/19 11:23:22;;;;;;;11.70;6.70;;;9.90;99.90;;;;;;5034947;28;20221;-72
2021/04/19 11:25:49;;;;;;;7.95;5.78;;;10.00;99.90;;;;;;5034606;28;20201;-72
2021/04/19 11:28:23;;;;;;;7.28;5.63;;;10.20;99.90;;;;;;5034579;28;20285;-74
2021/04/19 11:30:52;;;;;;;19.45;8.57;;;10.30;99.90;;;;;;5034890;28;20166;-72
2021/04/19 11:33:24;;;;;;;11.32;6.05;;;10.30;99.90;;;;;;5037754;28;20651;-72
2021/04/19 11:35:57;;;;;;;8.13;5.68;;;10.40;99.90;;;;;;5053974;28;20185;-72
2021/04/19 11:38:25;;;;;;;10.52;7.25;;;10.50;99.90;;;;;;5054816;28;20189;-74
2021/04/19 11:40:52;;;;;;;13.68;6.82;;;10.60;99.90;;;;;;5056849;28;20170;-70
2021/04/19 11:43:20;;;;;;;8.98;5.43;;;10.70;99.90;;;;;;5054886;28;20235;-77
2021/04/19 11:45:47;;;;;;;10.00;7.68;;;10.80;99.90;;;;;;5054409;28;20220;-72
2021/04/19 11:48:13;;;;;;;8.00;5.93;;;11.00;99.90;;;;;;5049351;28;20170;-74
2021/04/19 11:50:40;;;;;;;7.50;5.20;;;11.10;99.90;;;;;;5034500;28;20740;-71
2021/04/19 11:53:07;;;;;;;10.32;6.65;;;11.10;99.90;;;;;;5033163;28;20441;-76
2021/04/19 11:55:33;;;;;;;8.77;6.72;;;11.10;99.90;;;;;;5032600;28;20642;-71
2021/04/19 11:57:58;;;;;;;11.27;7.10;;;11.00;99.90;;;;;;5034269;28;20186;-70
2021/04/19 12:00:25;;;;;;;9.53;7.20;;;11.00;99.90;;;;;;5034377;28;20258;-70
2021/04/19 12:02:51;;;;;;;11.82;7.22;;;11.00;99.90;;;;;;5037402;28;20595;-73
2021/04/19 12:05:19;;;;;;;13.70;5.73;;;11.00;99.90;;;;;;5053827;28;20197;-73
2021/04/19 12:07:45;;;;;;;11.52;7.00;;;11.00;99.90;;;;;;5052700;28;20757;-76
2021/04/19 12:10:11;;;;;;;9.90;7.17;;;11.00;99.90;;;;;;5054012;28;20291;-71
2021/04/19 12:12:37;;;;;;;9.57;5.90;;;11.20;99.90;;;;;;5053913;28;20177;-74
2021/04/19 12:15:05;;;;;;;8.13;6.63;;;11.20;99.90;;;;;;5053543;28;20169;-68
2021/04/19 12:17:30;;;;;;;11.95;6.90;;;11.30;99.90;;;;;;5033767;28;20198;-72
2021/04/19 12:19:57;;;;;;;9.80;6.30;;;11.30;99.90;;;;;;5033668;28;20189;-70
2021/04/19 12:22:24;;;;;;;10.85;6.18;;;11.40;99.90;;;;;;5032424;28;20171;-70
2021/04/19 12:24:50;;;;;;;9.25;6.35;;;11.40;99.90;;;;;;5033238;28;20291;-70
2021/04/19 12:27:15;;;;;;;8.73;5.40;;;11.40;99.90;;;;;;5033077;28;20269;-74
2021/04/19 12:29:41;;;;;;;5.20;4.57;;;11.30;99.90;;;;;;5033573;28;20561;-70
2021/04/19 12:32:06;;;;;;;6.67;5.63;;;11.30;99.90;;;;;;5049640;28;20202;-71
2021/04/19 12:34:32;;;;;;;9.50;5.80;;;11.40;99.90;;;;;;5053164;28;20260;-70
2021/04/19 12:37:01;;;;;;;14.77;8.10;;;11.50;99.90;;;;;;5053446;28;20182;-69
2021/04/19 12:39:27;;;;;;;9.75;7.20;;;11.50;99.90;;;;;;5053140;28;20179;-69
2021/04/19 12:41:52;;;;;;;7.73;5.63;;;11.50;99.90;;;;;;5053404;28;20648;-67
2021/04/19 12:44:18;;;;;;;7.80;6.17;;;11.50;99.90;;;;;;5053002;28;20417;-68
2021/04/19 12:46:44;;;;;;;11.50;6.37;;;11.60;99.90;;;;;;5041791;28;20294;-68
2021/04/19 12:49:09;;;;;;;13.17;7.50;;;11.80;99.90;;;;;;5033275;28;20210;-68
2021/04/19 12:51:35;;;;;;;10.67;6.90;;;12.00;99.90;;;;;;5033169;28;20589;-70
2021/04/19 12:54:01;;;;;;;8.27;6.13;;;12.10;99.90;;;;;;5032927;28;20403;-70
2021/04/19 12:56:27;;;;;;;10.63;7.30;;;12.10;99.90;;;;;;5033188;28;20673;-70
2021/04/19 12:58:53;;;;;;;10.17;7.07;;;12.30;99.90;;;;;;5032997;28;20195;-71
2021/04/19 13:01:19;;;;;;;8.27;4.93;;;12.40;99.90;;;;;;5042631;28;20872;-71
2021/04/19 13:03:45;;;;;;;11.27;6.57;;;12.40;99.90;;;;;;5036679;28;20448;-72
2021/04/19 13:06:10;;;;;;;8.87;6.23;;;12.40;99.90;;;;;;5032788;28;20196;-69